Time;durP1;ratioP1;P1;durP2;ratioP2;P2;SDS_P1;SDS_P2;PMS_P1;PMS_P2;Temp;Humidity;BMP_temperature;BMP_pressure;BME280_temperature;BME280_humidity;BME280_pressure;Samples;Min_cycle;Max_cycle;Signal;HPM_P1;HPM_P2
2023/10/13 00:02:15;;;;;;;4.70;2.30;;;;;;;14.82;87.50;98838.13;105509;1254;73675;-21
2023/10/13 00:04:42;;;;;;;4.00;2.20;;;;;;;15.15;85.16;98838.64;105429;1259;74059;-21
2023/10/13 00:07:09;;;;;;;4.90;2.60;;;;;;;15.11;84.82;98840.91;105500;1254;72648;-21
2023/10/13 00:09:37;;;;;;;3.10;2.50;;;;;;;14.90;85.38;98840.82;105569;1254;61227;-21
2023/10/13 00:12:09;;;;;;;4.70;2.70;;;;;;;14.66;86.30;98844.09;105567;1254;61172;-21
2023/10/13 00:14:37;;;;;;;4.10;2.20;;;;;;;14.45;87.17;98845.52;105630;1254;73495;-21
2023/10/13 00:17:05;;;;;;;4.80;2.30;;;;;;;14.82;87.10;98843.58;105827;1257;74238;-21
2023/10/13 00:19:38;;;;;;;4.00;2.60;;;;;;;15.16;85.41;98848.09;105690;1254;71763;-21
2023/10/13 00:22:11;;;;;;;3.90;2.70;;;;;;;15.14;84.50;98847.45;105506;1257;61170;-21
2023/10/13 00:24:42;;;;;;;7.80;2.90;;;;;;;14.88;85.54;98847.88;105279;1256;61125;-21
2023/10/13 00:27:29;;;;;;;5.20;2.80;;;;;;;14.61;86.21;98850.71;105571;1257;72484;-23
2023/10/13 00:32:54;;;;;;;3.60;2.30;;;;;;;14.96;86.77;98845.30;105611;1254;72623;-21
2023/10/13 00:35:29;;;;;;;6.50;2.50;;;;;;;15.22;85.00;98848.23;105263;1255;61168;-21
2023/10/13 00:37:57;;;;;;;6.20;2.60;;;;;;;15.08;84.27;98845.05;105414;1259;61306;-22
2023/10/13 00:45:55;;;;;;;5.20;2.30;;;;;;;14.37;87.47;98851.38;105510;1256;72725;-21
2023/10/13 00:48:29;;;;;;;4.30;2.20;;;;;;;14.90;86.91;98849.07;105714;1254;61183;-22
2023/10/13 00:50:59;;;;;;;4.80;2.40;;;;;;;15.21;84.81;98850.77;105727;1259;61157;-21
2023/10/13 00:53:26;;;;;;;3.30;2.50;;;;;;;15.13;84.30;98851.95;105664;1254;72513;-21
2023/10/13 00:55:55;;;;;;;4.10;2.60;;;;;;;14.90;85.24;98849.02;105717;1259;74827;-22
2023/10/13 00:58:24;;;;;;;4.20;2.90;;;;;;;14.62;86.34;98847.63;105505;1254;72653;-21
2023/10/13 01:00:56;;;;;;;4.50;1.80;;;;;;;14.44;87.15;98853.84;105507;1260;61070;-21
2023/10/13 01:03:26;;;;;;;3.00;2.00;;;;;;;14.86;86.97;98849.98;105362;1255;61208;-21
2023/10/13 01:05:55;;;;;;;4.70;2.10;;;;;;;15.26;84.96;98858.94;105368;1254;73869;-22
2023/10/13 01:08:34;;;;;;;4.80;2.50;;;;;;;15.26;84.48;98864.93;105274;1253;74299;-21
2023/10/13 01:11:01;;;;;;;4.10;2.50;;;;;;;15.01;85.22;98869.02;105270;1254;71662;-22
2023/10/13 01:13:31;;;;;;;7.20;2.80;;;;;;;14.74;86.30;98871.80;105407;1255;61020;-21
2023/10/13 01:15:58;;;;;;;6.00;2.40;;;;;;;14.52;87.27;98869.61;105514;1259;61228;-21
2023/10/13 01:18:28;;;;;;;3.80;2.30;;;;;;;14.93;87.17;98870.23;105404;1254;74228;-21
2023/10/13 01:20:58;;;;;;;4.10;2.00;;;;;;;15.32;84.92;98869.74;105722;1254;74344;-21
2023/10/13 01:23:28;;;;;;;4.40;2.50;;;;;;;15.30;84.70;98871.89;105818;1259;73216;-22
2023/10/13 01:25:58;;;;;;;5.70;2.80;;;;;;;15.10;84.71;98867.26;105632;1257;61177;-22
2023/10/13 01:28:25;;;;;;;5.70;3.30;;;;;;;14.86;85.28;98866.61;105789;1259;61141;-22
2023/10/13 01:30:53;;;;;;;5.50;2.30;;;;;;;14.63;86.36;98870.61;105787;1254;73630;-21
2023/10/13 01:33:27;;;;;;;4.00;1.80;;;;;;;14.94;86.70;98869.45;105623;1254;74164;-22
2023/10/13 01:35:56;;;;;;;4.40;2.40;;;;;;;15.34;84.97;98871.13;105431;1253;71577;-23
2023/10/13 01:38:28;;;;;;;4.30;2.60;;;;;;;15.25;84.36;98869.92;105332;1254;60953;-22
2023/10/13 01:40:56;;;;;;;3.00;2.50;;;;;;;15.04;84.95;98873.62;105641;1259;61215;-22
2023/10/13 01:43:24;;;;;;;5.20;3.20;;;;;;;14.76;85.86;98877.88;105716;1254;73749;-22
2023/10/13 01:45:51;;;;;;;3.40;2.30;;;;;;;14.52;87.64;98881.28;105666;1258;74338;-23
2023/10/13 01:48:21;;;;;;;3.40;1.90;;;;;;;14.89;87.83;98883.58;105858;1254;72591;-22
2023/10/13 01:50:54;;;;;;;4.10;2.50;;;;;;;15.29;85.63;98883.17;105703;1254;61316;-22
2023/10/13 01:53:22;;;;;;;4.90;3.00;;;;;;;15.24;84.74;98881.16;105686;1259;61244;-21
2023/10/13 01:55:50;;;;;;;3.20;2.80;;;;;;;15.01;85.72;98884.26;105748;1254;73664;-24
2023/10/13 01:58:22;;;;;;;6.20;3.50;;;;;;;14.75;86.78;98886.92;105700;1259;74113;-21
2023/10/13 02:00:49;;;;;;;4.60;2.60;;;;;;;14.49;88.59;98886.63;105574;1259;72508;-22
2023/10/13 02:07:01;;;;;;;4.30;2.90;;;;;;;15.22;85.49;98879.18;105694;1259;61173;-22
2023/10/13 02:09:29;;;;;;;4.50;3.10;;;;;;;15.02;85.66;98880.98;105705;1253;73700;-22
2023/10/13 02:11:56;;;;;;;5.50;3.40;;;;;;;14.72;86.17;98889.74;105617;1254;74603;-22
2023/10/13 02:14:25;;;;;;;4.60;2.20;;;;;;;14.45;87.81;98889.70;105785;1254;72727;-22
2023/10/13 02:17:11;;;;;;;4.50;2.50;;;;;;;14.70;87.87;98881.84;105368;1256;61082;-22
2023/10/13 02:19:43;;;;;;;5.90;2.50;;;;;;;15.06;85.67;98884.44;105347;1259;61187;-23
2023/10/13 02:22:11;;;;;;;5.00;3.20;;;;;;;15.01;85.15;98884.95;105426;1262;72695;-22
2023/10/13 02:24:40;;;;;;;6.20;3.20;;;;;;;14.73;85.40;98893.33;105372;1254;73058;-22
2023/10/13 02:27:13;;;;;;;7.30;3.50;;;;;;;14.43;86.34;98897.63;105375;1257;72705;-22
2023/10/13 02:29:40;;;;;;;;;;;;;;;14.20;87.55;98900.51;105323;1259;62087;-22
2023/10/13 02:32:18;;;;;;;4.10;2.70;;;;;;;14.59;87.79;98903.33;105505;1257;61061;-23
2023/10/13 02:34:45;;;;;;;6.20;3.40;;;;;;;15.01;85.30;98903.14;105362;1254;74464;-22
2023/10/13 02:37:13;;;;;;;5.30;3.30;;;;;;;14.94;84.91;98906.62;105523;1256;74806;-22
2023/10/13 02:39:41;;;;;;;5.30;3.10;;;;;;;14.69;85.76;98909.52;105286;1255;72708;-22
2023/10/13 02:42:16;;;;;;;4.00;2.90;;;;;;;14.42;86.79;98912.81;105357;1258;61201;-22
2023/10/13 02:44:46;;;;;;;5.90;2.20;;;;;;;14.20;88.10;98910.34;105208;1254;61159;-22
2023/10/13 02:47:14;;;;;;;5.40;3.20;;;;;;;14.63;88.14;98907.15;105367;1259;72665;-22
2023/10/13 02:49:43;;;;;;;7.20;3.30;;;;;;;15.02;85.77;98911.46;105476;1259;74410;-22
2023/10/13 02:52:11;;;;;;;8.20;3.80;;;;;;;14.93;85.61;98914.98;105669;1255;72808;-22
2023/10/13 02:54:50;;;;;;;6.70;3.60;;;;;;;14.70;86.40;98918.70;105516;1254;61160;-22
2023/10/13 02:57:17;;;;;;;5.50;3.70;;;;;;;14.43;87.24;98917.86;105444;1255;61213;-22
2023/10/13 02:59:55;;;;;;;4.70;3.10;;;;;;;14.26;88.35;98917.77;105460;1254;73985;-22
2023/10/13 03:02:25;;;;;;;3.80;2.90;;;;;;;14.70;88.15;98915.69;105483;1254;74246;-22
2023/10/13 03:04:59;;;;;;;5.30;3.20;;;;;;;15.12;86.15;98922.31;105505;1254;72748;-22
2023/10/13 03:07:43;;;;;;;9.40;3.70;;;;;;;15.06;85.89;98919.12;104897;1259;61013;-22
2023/10/13 03:10:11;;;;;;;7.90;4.10;;;;;;;14.77;86.58;98918.28;105088;1264;61315;-23
2023/10/13 03:12:39;;;;;;;5.10;4.10;;;;;;;14.52;87.70;98915.88;105082;1259;73688;-22
2023/10/13 03:15:13;;;;;;;7.10;3.20;;;;;;;14.33;89.03;98915.50;105133;1265;74356;-22
2023/10/13 03:17:43;;;;;;;6.50;3.70;;;;;;;14.74;88.79;98918.76;105059;1260;71052;-22
2023/10/13 03:20:22;;;;;;;6.90;4.10;;;;;;;15.11;86.57;98918.05;105064;1263;61743;-23
2023/10/13 03:22:52;;;;;;;7.00;4.20;;;;;;;15.06;86.22;98920.44;105073;1259;61347;-22
2023/10/13 03:30:35;;;;;;;7.80;3.60;;;;;;;14.42;89.14;98920.73;104946;1263;71418;-22
2023/10/13 03:33:07;;;;;;;;;;;;;;;14.89;89.21;98921.83;105354;1260;61237;-22
2023/10/13 03:35:37;;;;;;;8.60;5.10;;;;;;;15.25;86.46;98920.77;105273;1258;61245;-22
2023/10/13 03:38:17;;;;;;;7.50;5.00;;;;;;;15.25;86.10;98922.57;105234;1261;73718;-22
2023/10/13 03:40:49;;;;;;;13.20;5.40;;;;;;;15.01;86.58;98920.77;105221;1262;74334;-22
2023/10/13 03:43:21;;;;;;;8.80;5.90;;;;;;;14.74;87.76;98921.54;105385;1254;73232;-22
2023/10/13 03:45:52;;;;;;;10.20;4.40;;;;;;;14.54;89.25;98925.11;105373;1259;61771;-22
2023/10/13 03:51:03;;;;;;;7.20;5.00;;;;;;;15.45;86.29;98921.06;105570;1254;74408;-23
2023/10/13 03:53:34;;;;;;;8.50;5.40;;;;;;;15.43;85.33;98921.26;105697;1259;74752;-23
2023/10/13 03:56:07;;;;;;;11.00;6.40;;;;;;;15.16;85.62;98925.17;105557;1254;72630;-23
2023/10/13 03:58:36;;;;;;;;;;;;;;;14.85;86.82;98925.67;105219;1260;61103;-23
2023/10/13 04:01:03;;;;;;;13.20;7.40;;;;;;;14.59;88.44;98927.39;105632;1260;61172;-23
2023/10/13 04:03:42;;;;;;;7.70;4.80;;;;;;;14.43;89.80;98925.52;105787;1254;73921;-22
2023/10/13 04:06:16;;;;;;;8.60;4.70;;;;;;;14.92;89.03;98929.63;105740;1259;74381;-23
2023/10/13 04:08:49;;;;;;;7.70;5.30;;;;;;;15.32;86.62;98931.81;105435;1260;72699;-23
2023/10/13 04:16:58;;;;;;;10.30;7.20;;;;;;;14.64;88.67;98943.52;105357;1254;73608;-22
2023/10/13 04:19:29;;;;;;;8.50;5.40;;;;;;;14.47;89.53;98944.05;105392;1254;74362;-22
2023/10/13 04:21:58;;;;;;;9.80;5.00;;;;;;;14.89;88.85;98952.36;105373;1259;72682;-22
2023/10/13 04:30:10;;;;;;;11.10;6.30;;;;;;;14.85;86.95;98969.81;105460;1259;73696;-22
2023/10/13 04:33:05;;;;;;;10.20;6.90;;;;;;;14.57;88.42;98971.30;105726;1259;74885;-22
2023/10/13 04:35:35;;;;;;;10.20;5.10;;;;;;;14.31;90.10;98978.15;105607;1255;72647;-22
2023/10/13 04:38:10;;;;;;;8.30;5.00;;;;;;;14.87;88.87;98978.83;105629;1258;61063;-22
2023/10/13 04:40:58;;;;;;;11.10;6.70;;;;;;;15.16;86.33;98980.17;105605;1258;61180;-22
2023/10/13 04:43:55;;;;;;;9.90;7.00;;;;;;;14.99;86.41;98988.17;105612;1260;73780;-23
2023/10/13 04:49:27;;;;;;;11.70;5.70;;;;;;;14.44;88.58;98996.66;105065;1257;72599;-22
2023/10/13 04:57:46;;;;;;;11.10;6.50;;;;;;;14.88;85.70;99003.02;105429;1258;74366;-22
2023/10/13 05:05:46;;;;;;;7.70;5.50;;;;;;;14.71;87.32;99016.44;104769;1263;61357;-22
2023/10/13 05:47:36;;;;;;;14.10;6.30;;;;;;;14.63;87.28;99074.67;105591;1257;61060;-22
2023/10/13 06:28:40;;;;;;;10.70;6.90;;;;;;;14.43;84.50;99077.39;105852;1254;73821;-23
2023/10/13 06:29:01;;;;;;;9.00;5.70;;;;;;;14.35;85.03;99103.64;105464;1253;61831;-23
2023/10/13 06:31:28;;;;;;;6.90;5.80;;;;;;;14.85;82.94;99105.76;105541;1260;61142;-22
2023/10/13 06:33:55;;;;;;;7.60;5.60;;;;;;;14.89;81.70;99103.08;105595;1260;73770;-23
2023/10/13 06:36:22;;;;;;;9.40;6.60;;;;;;;14.60;80.97;99105.98;105693;1255;74248;-22
2023/10/13 06:38:55;;;;;;;10.70;6.40;;;;;;;14.29;82.38;99112.63;105468;1260;72433;-22
2023/10/13 06:41:30;;;;;;;11.10;6.00;;;;;;;14.18;83.57;99116.66;105532;1257;61452;-22
2023/10/13 06:44:00;;;;;;;10.00;5.70;;;;;;;14.12;83.33;99119.70;105623;1257;61163;-22
2023/10/13 06:46:28;;;;;;;11.90;5.40;;;;;;;14.60;82.32;99120.69;105396;1259;73905;-23
2023/10/13 06:48:59;;;;;;;8.30;5.80;;;;;;;14.89;80.84;99120.35;105541;1258;74426;-22
2023/10/13 06:51:30;;;;;;;9.20;5.60;;;;;;;14.75;79.57;99124.14;105396;1260;72755;-22
2023/10/13 06:53:57;;;;;;;8.90;6.30;;;;;;;14.64;79.73;99129.23;105559;1258;61157;-22
2023/10/13 06:56:28;;;;;;;9.50;6.00;;;;;;;14.40;80.47;99129.10;105474;1259;61137;-22
2023/10/13 06:59:04;;;;;;;6.00;4.40;;;;;;;14.21;80.56;99134.54;105536;1257;73952;-22
2023/10/13 07:01:38;;;;;;;8.30;5.00;;;;;;;14.32;80.85;99133.81;105547;1258;74441;-22
2023/10/13 07:04:14;;;;;;;6.40;4.60;;;;;;;14.72;79.01;99129.71;105796;1260;72668;-22
2023/10/13 07:06:47;;;;;;;6.70;4.90;;;;;;;14.75;77.94;99130.14;105538;1259;61227;-22
2023/10/13 07:09:39;;;;;;;7.90;5.20;;;;;;;14.55;78.94;99132.83;105549;1257;61938;-22
2023/10/13 07:12:06;;;;;;;7.90;5.50;;;;;;;14.34;78.89;99138.18;105581;1260;73698;-21
2023/10/13 07:14:40;;;;;;;9.50;5.70;;;;;;;14.13;79.84;99141.91;105404;1259;74251;-22
2023/10/13 07:17:08;;;;;;;7.20;3.70;;;;;;;14.18;81.08;99141.83;105552;1254;71653;-21
2023/10/13 07:19:45;;;;;;;10.50;4.70;;;;;;;14.87;79.66;99131.42;105563;1257;61163;-22
2023/10/13 07:22:19;;;;;;;9.20;4.80;;;;;;;15.26;75.09;99131.63;105403;1260;61628;-23
2023/10/13 07:24:48;;;;;;;8.00;5.00;;;;;;;15.25;76.08;99132.41;105257;1262;73749;-22
2023/10/13 07:27:22;;;;;;;9.20;5.60;;;;;;;15.12;77.08;99140.10;105302;1253;72870;-22
2023/10/13 07:30:14;;;;;;;8.20;5.30;;;;;;;14.92;77.09;99149.93;105339;1254;72543;-22
2023/10/13 07:32:45;;;;;;;8.60;4.50;;;;;;;14.77;78.72;99153.50;105334;1255;61228;-21
2023/10/13 07:35:15;;;;;;;8.40;3.20;;;;;;;14.75;77.09;99149.00;105514;1260;61074;-21
2023/10/13 07:37:43;;;;;;;7.00;3.80;;;;;;;15.17;73.77;99142.50;105570;1256;72459;-21
2023/10/13 07:43:05;;;;;;;6.30;3.50;;;;;;;15.51;71.51;99142.41;105376;1257;73085;-22
2023/10/13 07:45:38;;;;;;;5.70;4.10;;;;;;;15.42;71.42;99149.75;105671;1256;61084;-22
2023/10/13 07:48:18;;;;;;;8.70;3.90;;;;;;;15.37;70.89;99150.14;105548;1259;61122;-22
2023/10/13 07:51:13;;;;;;;7.80;4.40;;;;;;;15.23;72.87;99148.16;105403;1254;74295;-22
2023/10/13 07:53:40;;;;;;;5.20;3.50;;;;;;;14.92;71.10;99149.60;105272;1263;74429;-22
2023/10/13 07:56:08;;;;;;;7.30;3.50;;;;;;;14.83;72.36;99154.14;105558;1254;73608;-22
2023/10/13 07:59:09;;;;;;;7.30;3.60;;;;;;;14.72;73.28;99156.61;105691;1254;61138;-22
2023/10/13 08:01:32;;;;;;;5.10;3.20;;;;;;;14.57;73.64;99161.86;105355;1259;61202;-22
2023/10/13 08:04:11;;;;;;;6.90;3.40;;;;;;;15.06;71.43;99165.35;105562;1254;73831;-22
2023/10/13 08:07:39;;;;;;;7.30;3.30;;;;;;;15.35;70.44;99171.31;102657;1292;600244;-22
2023/10/13 08:10:10;;;;;;;4.30;3.90;;;;;;;15.33;71.12;99182.13;105209;1269;61238;-21
2023/10/13 08:12:37;;;;;;;7.60;3.50;;;;;;;15.29;70.42;99183.60;104953;1264;61142;-21
2023/10/13 08:15:13;;;;;;;6.50;3.40;;;;;;;15.03;69.75;99177.58;105204;1268;70976;-21
2023/10/13 08:17:44;;;;;;;5.20;2.90;;;;;;;14.95;70.79;99188.27;104900;1267;73104;-21
2023/10/13 08:20:12;;;;;;;6.50;3.80;;;;;;;14.90;70.95;99194.75;102712;1261;3385653;-21
2023/10/13 08:22:46;;;;;;;4.60;3.20;;;;;;;14.89;70.79;99199.20;104922;1266;61150;-21
2023/10/13 08:26:29;;;;;;;5.70;3.00;;;;;;;14.96;71.47;99197.98;105039;1266;61169;-21
2023/10/13 08:36:05;;;;;;;9.90;2.80;;;;;;;14.31;70.07;99204.34;102609;1293;599496;-21
2023/10/13 08:38:50;;;;;;;4.60;2.90;;;;;;;14.16;71.01;99210.05;104874;1266;62646;-22
2023/10/13 08:49:15;;;;;;;3.70;2.40;;;;;;;14.97;67.48;99211.56;102605;1294;600091;-21
2023/10/13 08:51:43;;;;;;;3.20;2.00;;;;;;;14.77;66.45;99207.00;104856;1267;61166;-21
2023/10/13 09:02:15;;;;;;;5.50;2.50;;;;;;;15.84;62.94;99209.62;102662;1293;600201;-22
2023/10/13 09:04:47;;;;;;;3.70;2.10;;;;;;;16.07;61.58;99215.08;104900;1269;61199;-21
2023/10/13 09:07:21;;;;;;;6.00;2.60;;;;;;;16.31;60.03;99220.35;104853;1264;61056;-21
2023/10/13 09:25:36;;;;;;;3.40;2.00;;;;;;;16.73;57.82;99218.45;105082;1263;61181;-22
2023/10/13 09:28:14;;;;;;;3.30;1.80;;;;;;;16.96;56.45;99219.77;105090;1264;70876;-22
2023/10/13 09:30:46;;;;;;;3.10;1.80;;;;;;;17.00;55.98;99222.73;105111;1263;74300;-22
2023/10/13 09:40:57;;;;;;;3.50;2.20;;;;;;;17.01;56.81;99203.67;102610;1305;599411;-21
2023/10/13 09:43:26;;;;;;;3.50;2.20;;;;;;;17.15;56.71;99199.23;104888;1267;61187;-22
2023/10/13 09:46:07;;;;;;;3.40;2.00;;;;;;;17.06;56.47;99200.86;104885;1272;61206;-22
2023/10/13 09:48:45;;;;;;;6.60;1.80;;;;;;;16.87;57.04;99201.05;104737;1271;71007;-21
2023/10/13 09:51:13;;;;;;;3.20;1.90;;;;;;;16.72;57.52;99203.85;104880;1270;73213;-22
2023/10/13 09:53:44;;;;;;;2.80;1.90;;;;;;;16.76;57.36;99202.20;102155;1274;3511170;-22
2023/10/13 09:56:55;;;;;;;3.50;2.10;;;;;;;16.75;57.42;99206.67;104629;1270;61174;-22
2023/10/13 09:59:35;;;;;;;4.30;2.30;;;;;;;17.08;56.19;99196.98;104913;1272;61146;-22
2023/10/13 10:02:18;;;;;;;5.30;1.90;;;;;;;17.11;53.36;99198.02;104853;1264;70981;-22
2023/10/13 10:04:53;;;;;;;3.40;1.80;;;;;;;16.89;52.85;99199.28;104852;1280;76623;-22
2023/10/13 10:07:28;;;;;;;3.10;1.80;;;;;;;16.94;55.00;99199.98;104687;1268;73085;-22
2023/10/13 10:09:56;;;;;;;3.00;2.00;;;;;;;17.36;53.64;99188.92;104806;1271;61150;-22
2023/10/13 10:12:36;;;;;;;9.30;1.80;;;;;;;17.45;52.47;99191.13;104705;1264;61176;-22
2023/10/13 10:15:43;;;;;;;4.00;1.90;;;;;;;17.64;52.17;99186.25;105111;1269;75309;-22
2023/10/13 10:18:19;;;;;;;2.00;1.40;;;;;;;17.96;50.46;99190.00;104854;1264;73159;-22
2023/10/13 10:20:48;;;;;;;3.80;1.70;;;;;;;18.04;51.16;99184.55;104807;1270;72495;-22
2023/10/13 10:23:28;;;;;;;4.10;2.20;;;;;;;18.45;51.57;99182.70;104827;1264;62308;-23
2023/10/13 10:26:08;;;;;;;3.90;2.10;;;;;;;18.54;50.42;99181.10;104842;1264;61099;-22
2023/10/13 10:36:29;;;;;;;3.20;1.70;;;;;;;18.43;49.95;99173.81;102618;1294;600188;-21
2023/10/13 10:39:00;;;;;;;2.60;1.50;;;;;;;18.41;50.31;99181.02;104835;1267;61126;-22
2023/10/13 10:41:38;;;;;;;3.00;1.40;;;;;;;18.29;49.85;99173.17;104857;1272;61189;-21
2023/10/13 10:44:35;;;;;;;3.20;1.80;;;;;;;17.98;51.74;99173.08;104855;1267;74532;-21
2023/10/13 10:47:19;;;;;;;3.00;1.80;;;;;;;18.19;50.62;99176.30;104609;1270;74300;-21
2023/10/13 10:49:47;;;;;;;3.50;1.70;;;;;;;17.59;51.97;99173.48;102426;1269;3204131;-21
2023/10/13 10:59:40;;;;;;;2.70;1.70;;;;;;;18.21;51.43;99179.76;102511;1291;616147;-23
2023/10/13 11:02:08;;;;;;;2.70;1.60;;;;;;;18.45;50.91;99176.14;105099;1267;61052;-23
2023/10/13 11:04:40;;;;;;;3.60;1.70;;;;;;;18.60;50.56;99169.03;105077;1267;61158;-23
2023/10/13 11:07:08;;;;;;;3.40;1.50;;;;;;;18.46;50.96;99168.20;105697;1257;71236;-23
2023/10/13 11:09:45;;;;;;;3.40;1.80;;;;;;;18.72;50.80;99163.48;105622;1257;74166;-23
2023/10/13 11:12:23;;;;;;;4.40;2.30;;;;;;;18.81;50.89;99162.80;102831;1254;3561685;-23
2023/10/13 11:15:13;;;;;;;3.60;1.70;;;;;;;18.96;50.39;99167.79;105517;1254;61084;-23
2023/10/13 11:17:48;;;;;;;2.90;1.50;;;;;;;18.84;50.54;99171.21;105712;1254;61045;-23
2023/10/13 11:20:17;;;;;;;3.40;1.70;;;;;;;18.68;51.19;99178.01;105646;1254;72192;-23
2023/10/13 11:22:48;;;;;;;2.70;1.60;;;;;;;17.78;52.80;99176.34;105451;1253;74170;-23
2023/10/13 11:25:34;;;;;;;4.40;1.80;;;;;;;17.94;53.47;99181.91;105748;1254;72781;-23
2023/10/13 11:28:17;;;;;;;3.90;1.60;;;;;;;18.13;52.90;99180.20;105596;1252;61054;-23
2023/10/13 11:30:50;;;;;;;3.30;1.90;;;;;;;17.78;53.72;99184.73;105820;1256;61172;-23
2023/10/13 11:33:23;;;;;;;;;;;;;;;17.95;53.61;99186.90;105660;1256;73018;-23
2023/10/13 11:38:27;;;;;;;2.80;1.70;;;;;;;18.13;53.63;99190.45;105861;1254;72595;-23
2023/10/13 11:48:37;;;;;;;2.60;1.50;;;;;;;18.34;53.98;99193.16;105648;1258;74353;-23
2023/10/13 11:51:31;;;;;;;2.90;1.40;;;;;;;18.22;54.30;99202.23;105773;1253;73199;-23
2023/10/13 11:53:58;;;;;;;3.70;2.00;;;;;;;18.38;53.88;99201.88;105512;1257;61157;-23
2023/10/13 11:56:25;;;;;;;3.50;1.60;;;;;;;18.20;53.65;99195.39;105427;1259;61233;-23
2023/10/13 11:58:52;;;;;;;3.30;2.10;;;;;;;18.11;54.27;99202.74;105250;1257;73173;-24
2023/10/13 12:11:50;;;;;;;4.40;1.90;;;;;;;16.90;57.36;99202.30;105585;1257;73116;-23
2023/10/13 12:14:21;;;;;;;3.10;2.20;;;;;;;16.81;57.60;99199.42;105490;1262;73504;-23
2023/10/13 12:16:50;;;;;;;2.90;1.90;;;;;;;16.90;58.16;99197.56;105535;1257;72665;-23
2023/10/13 12:19:18;;;;;;;2.20;1.70;;;;;;;17.03;57.61;99195.24;105164;1257;61230;-23
2023/10/13 12:21:46;;;;;;;3.00;1.70;;;;;;;17.07;56.23;99194.48;105348;1257;61246;-24
2023/10/13 12:24:31;;;;;;;2.40;1.50;;;;;;;16.94;56.52;99197.71;105384;1257;73468;-23
2023/10/13 12:26:58;;;;;;;3.90;2.20;;;;;;;17.04;56.92;99200.41;105506;1254;75729;-23
2023/10/13 12:29:28;;;;;;;2.70;1.60;;;;;;;17.00;57.14;99199.05;105602;1254;72659;-23
2023/10/13 12:32:11;;;;;;;5.50;2.10;;;;;;;16.72;57.72;99196.85;105542;1253;61054;-23
2023/10/13 12:51:21;;;;;;;4.10;2.20;;;;;;;17.57;56.25;99166.36;105694;1252;72945;-23
2023/10/13 12:53:49;;;;;;;2.70;1.90;;;;;;;17.56;55.95;99169.06;105617;1254;74905;-23
2023/10/13 12:56:16;;;;;;;4.70;2.00;;;;;;;17.58;56.31;99168.70;105319;1253;72754;-23
2023/10/13 12:58:53;;;;;;;2.50;2.00;;;;;;;17.56;55.91;99169.71;105397;1254;61124;-23
2023/10/13 13:01:22;;;;;;;5.50;1.90;;;;;;;17.45;56.30;99168.61;105639;1254;61121;-23
2023/10/13 13:03:49;;;;;;;2.80;1.90;;;;;;;17.54;56.09;99163.64;105702;1254;73137;-23
2023/10/13 13:06:26;;;;;;;3.20;2.20;;;;;;;17.63;55.76;99161.11;105750;1254;74907;-23
2023/10/13 13:08:54;;;;;;;4.10;1.80;;;;;;;17.66;55.75;99160.50;105512;1259;72882;-23
2023/10/13 13:11:21;;;;;;;2.30;1.80;;;;;;;17.71;55.40;99159.48;105693;1254;61206;-23
2023/10/13 13:13:51;;;;;;;4.00;2.10;;;;;;;17.82;55.23;99155.20;105652;1258;61630;-23
2023/10/13 13:16:20;;;;;;;4.50;1.70;;;;;;;17.90;55.53;99156.26;105689;1258;72990;-23
2023/10/13 13:18:47;;;;;;;3.90;1.70;;;;;;;17.98;55.21;99151.98;105751;1254;74292;-23
2023/10/13 13:21:22;;;;;;;3.80;1.70;;;;;;;18.03;55.40;99148.73;105857;1254;71702;-23
2023/10/13 13:23:50;;;;;;;3.80;2.70;;;;;;;18.18;55.01;99154.39;105609;1254;60968;-23
2023/10/13 13:26:18;;;;;;;4.40;1.60;;;;;;;18.33;55.05;99152.52;105763;1254;61167;-23
2023/10/13 13:28:45;;;;;;;3.60;1.60;;;;;;;18.38;53.54;99148.42;105839;1253;73086;-23
2023/10/13 13:31:12;;;;;;;4.20;1.40;;;;;;;18.38;52.96;99145.34;105769;1259;75826;-23
2023/10/13 13:33:43;;;;;;;1.70;1.50;;;;;;;18.30;52.80;99145.48;105862;1254;72908;-23
2023/10/13 13:36:16;;;;;;;1.90;1.30;;;;;;;18.27;52.81;99145.33;105703;1254;61724;-23
2023/10/13 13:38:49;;;;;;;2.50;1.40;;;;;;;18.11;53.13;99147.98;105691;1253;61055;-23
2023/10/13 13:41:17;;;;;;;2.40;1.20;;;;;;;17.97;53.50;99146.70;105820;1256;73673;-23
2023/10/13 13:43:54;;;;;;;2.80;1.40;;;;;;;17.85;53.38;99147.09;105667;1254;72504;-23
2023/10/13 13:46:32;;;;;;;1.70;1.20;;;;;;;17.81;53.46;99139.86;105710;1254;72629;-23
2023/10/13 13:49:00;;;;;;;3.00;1.20;;;;;;;17.80;53.35;99135.38;105638;1254;61090;-23
2023/10/13 13:51:28;;;;;;;1.50;1.00;;;;;;;17.75;53.16;99132.56;105707;1259;61154;-23
2023/10/13 13:53:56;;;;;;;1.60;1.20;;;;;;;17.77;53.71;99131.08;105621;1259;73085;-23
2023/10/13 13:56:25;;;;;;;2.00;1.00;;;;;;;17.80;53.74;99133.56;105706;1254;74195;-23
2023/10/13 13:58:53;;;;;;;1.80;1.10;;;;;;;17.79;53.65;99134.58;105651;1258;72725;-23
2023/10/13 14:01:25;;;;;;;1.30;1.00;;;;;;;17.80;53.95;99132.88;105627;1254;61065;-23
2023/10/13 14:03:56;;;;;;;1.40;1.10;;;;;;;17.82;54.26;99131.76;105736;1256;61547;-23
2023/10/13 14:06:25;;;;;;;3.70;1.10;;;;;;;17.81;53.84;99128.20;105642;1254;73037;-23
2023/10/13 14:08:54;;;;;;;2.00;1.00;;;;;;;17.82;54.26;99131.57;105670;1254;74135;-23
2023/10/13 14:14:13;;;;;;;1.50;1.20;;;;;;;17.80;53.99;99132.71;105681;1254;61224;-23
2023/10/13 14:16:49;;;;;;;1.80;1.40;;;;;;;17.75;53.87;99136.05;105684;1259;61192;-23
2023/10/13 14:19:28;;;;;;;2.10;1.30;;;;;;;17.74;54.34;99137.31;105693;1254;73033;-25
2023/10/13 14:21:56;;;;;;;1.80;1.30;;;;;;;17.67;54.44;99136.25;105858;1254;74350;-23
2023/10/13 14:24:33;;;;;;;2.20;1.70;;;;;;;17.66;54.80;99139.35;105846;1254;72363;-23
2023/10/13 14:27:21;;;;;;;1.50;1.20;;;;;;;17.63;54.83;99144.07;105701;1254;61132;-23
2023/10/13 14:29:52;;;;;;;1.90;1.20;;;;;;;17.53;55.00;99141.65;105714;1260;61087;-23
2023/10/13 14:32:24;;;;;;;1.20;1.00;;;;;;;17.48;55.26;99141.16;105694;1258;73031;-23
2023/10/13 14:34:54;;;;;;;1.60;1.00;;;;;;;17.47;55.56;99146.69;105696;1259;74127;-22
2023/10/13 14:37:31;;;;;;;1.60;1.20;;;;;;;17.47;55.61;99146.05;105655;1259;72727;-23
2023/10/13 14:39:59;;;;;;;2.50;1.20;;;;;;;17.44;55.55;99143.11;105748;1254;61120;-23
2023/10/13 14:42:27;;;;;;;2.50;1.10;;;;;;;17.41;55.99;99142.77;105670;1259;61121;-23
2023/10/13 14:44:57;;;;;;;2.80;1.20;;;;;;;17.37;56.14;99140.57;105560;1259;73085;-23
2023/10/13 14:47:24;;;;;;;2.10;1.40;;;;;;;17.30;56.38;99135.70;105596;1259;74243;-23
2023/10/13 14:49:55;;;;;;;1.60;1.20;;;;;;;17.25;56.35;99141.48;105655;1254;72582;-23
2023/10/13 14:52:22;;;;;;;2.80;1.50;;;;;;;17.19;56.49;99139.02;105482;1254;61056;-23
2023/10/13 14:54:55;;;;;;;1.40;1.10;;;;;;;17.11;56.74;99138.48;105831;1254;61106;-23
2023/10/13 14:57:37;;;;;;;2.10;1.20;;;;;;;17.00;57.18;99138.39;105395;1257;72804;-27
2023/10/13 15:00:13;;;;;;;2.20;1.40;;;;;;;16.90;57.38;99135.55;105275;1264;76050;-24
2023/10/13 15:02:44;;;;;;;1.80;1.10;;;;;;;16.77;57.96;99142.04;105155;1260;73216;-22
2023/10/13 15:05:16;;;;;;;3.00;1.20;;;;;;;16.61;58.32;99141.27;105432;1257;61589;-23
2023/10/13 15:07:45;;;;;;;3.10;1.40;;;;;;;16.46;58.81;99146.73;105586;1262;61094;-23
2023/10/13 15:10:15;;;;;;;3.50;1.80;;;;;;;16.27;60.22;99145.05;105582;1257;73164;-21
2023/10/13 15:12:44;;;;;;;3.70;1.90;;;;;;;16.04;61.08;99143.43;105384;1257;74991;-22
2023/10/13 15:15:15;;;;;;;2.30;1.30;;;;;;;15.82;61.73;99142.80;105278;1263;73884;-23
2023/10/13 15:17:43;;;;;;;1.90;1.30;;;;;;;15.65;62.15;99140.27;105531;1256;61179;-21
2023/10/13 15:20:15;;;;;;;1.50;1.00;;;;;;;15.50;62.19;99144.02;105378;1264;61173;-21
2023/10/13 15:22:43;;;;;;;1.30;1.10;;;;;;;15.37;62.61;99148.37;105409;1257;73807;-22
2023/10/13 15:25:29;;;;;;;2.60;1.50;;;;;;;15.23;62.81;99144.70;105409;1263;73230;-22
2023/10/13 15:28:03;;;;;;;3.30;1.50;;;;;;;15.09;63.35;99148.80;105615;1260;71069;-21
2023/10/13 15:30:44;;;;;;;1.50;1.20;;;;;;;14.96;63.75;99158.81;105702;1254;61145;-21
2023/10/13 15:33:12;;;;;;;2.70;1.30;;;;;;;14.81;64.16;99152.76;105707;1259;61140;-22
2023/10/13 15:35:45;;;;;;;6.10;2.50;;;;;;;14.65;64.51;99152.36;105848;1254;73776;-23
2023/10/13 15:38:12;;;;;;;1.50;1.40;;;;;;;14.44;65.09;99152.42;105857;1259;72355;-23